Time;durP1;ratioP1;P1;durP2;ratioP2;P2;SDS_P1;SDS_P2;PMS_P1;PMS_P2;Temp;Humidity;BMP_temperature;BMP_pressure;BME280_temperature;BME280_humidity;BME280_pressure;Samples;Min_cycle;Max_cycle;Signal;HPM_P1;HPM_P2
2024/01/06 00:01:25;;;;;;;6.25;2.35;;;7.00;99.90;;;;;;4977398;28;20384;-78
2024/01/06 00:03:50;;;;;;;7.32;2.45;;;6.90;99.90;;;;;;4977248;28;20203;-79
2024/01/06 00:06:16;;;;;;;5.45;2.40;;;6.90;99.90;;;;;;4960709;28;20404;-79
2024/01/06 00:08:41;;;;;;;7.53;2.67;;;6.90;99.90;;;;;;4977007;28;20023;-78
2024/01/06 00:11:07;;;;;;;5.47;2.20;;;6.80;99.90;;;;;;4977799;28;20039;-78
2024/01/06 00:13:33;;;;;;;6.47;2.20;;;6.80;99.90;;;;;;4992686;28;20065;-83
2024/01/06 00:16:00;;;;;;;5.00;2.33;;;6.80;99.90;;;;;;4977628;28;20026;-78
2024/01/06 00:18:25;;;;;;;6.55;2.63;;;6.80;99.90;;;;;;4960601;28;20089;-78
2024/01/06 00:20:51;;;;;;;8.15;2.70;;;6.80;99.90;;;;;;4959859;28;20532;-78
2024/01/06 00:23:17;;;;;;;3.92;2.10;;;6.80;99.90;;;;;;4977480;28;20030;-78
2024/01/06 00:25:42;;;;;;;4.78;2.35;;;6.80;99.90;;;;;;4959882;28;20404;-78
2024/01/06 00:28:08;;;;;;;5.57;2.65;;;6.70;99.90;;;;;;4960155;28;20142;-78
2024/01/06 00:30:33;;;;;;;5.45;2.45;;;6.70;99.90;;;;;;4992252;28;20027;-86
2024/01/06 00:32:59;;;;;;;4.10;2.30;;;6.70;99.90;;;;;;4977096;28;20026;-78
2024/01/06 00:35:25;;;;;;;7.97;2.58;;;6.80;99.90;;;;;;4977356;28;20427;-78
2024/01/06 00:37:50;;;;;;;5.47;2.45;;;6.70;99.90;;;;;;4959499;28;20055;-78
2024/01/06 00:40:16;;;;;;;4.85;2.00;;;6.70;99.90;;;;;;4992260;28;20479;-78
2024/01/06 00:42:42;;;;;;;5.35;2.30;;;6.70;99.90;;;;;;4992288;28;20129;-78
2024/01/06 00:45:08;;;;;;;8.60;2.38;;;6.70;99.90;;;;;;4976077;28;20105;-78
2024/01/06 00:47:34;;;;;;;7.97;2.15;;;6.70;99.90;;;;;;4959997;28;20042;-79
2024/01/06 00:49:59;;;;;;;5.28;2.58;;;6.60;99.90;;;;;;4959979;28;20027;-78
2024/01/06 00:52:25;;;;;;;4.80;1.98;;;6.60;99.90;;;;;;4977423;28;20027;-78
2024/01/06 00:54:51;;;;;;;4.15;1.90;;;6.60;99.90;;;;;;4977345;28;20487;-77
2024/01/06 00:57:16;;;;;;;4.70;2.03;;;6.60;99.90;;;;;;4960104;28;20093;-78
2024/01/06 00:59:42;;;;;;;3.20;1.95;;;6.60;99.90;;;;;;4959864;28;20429;-77
2024/01/06 01:02:07;;;;;;;5.63;2.58;;;6.60;99.90;;;;;;4959910;28;20023;-78
2024/01/06 01:04:33;;;;;;;6.88;2.38;;;6.60;99.90;;;;;;4959610;28;20023;-78
2024/01/06 01:06:58;;;;;;;4.68;2.28;;;6.50;99.90;;;;;;4976784;28;20084;-78
2024/01/06 01:09:24;;;;;;;5.93;2.58;;;6.50;99.90;;;;;;4959417;28;20057;-78
2024/01/06 01:11:50;;;;;;;9.57;3.03;;;6.50;99.90;;;;;;4991655;28;20076;-78
2024/01/06 01:14:18;;;;;;;4.30;2.30;;;6.50;99.90;;;;;;4976821;28;20457;-78
2024/01/06 01:16:43;;;;;;;5.00;2.10;;;6.50;99.90;;;;;;4959366;28;20034;-77
2024/01/06 01:19:09;;;;;;;5.68;2.17;;;6.50;99.90;;;;;;4992000;28;20027;-77
2024/01/06 01:21:35;;;;;;;5.03;2.20;;;6.50;99.90;;;;;;4959502;28;20033;-78
2024/01/06 01:24:00;;;;;;;5.50;2.25;;;6.40;99.90;;;;;;4959253;28;20456;-78
2024/01/06 01:26:26;;;;;;;3.97;2.20;;;6.40;99.90;;;;;;4976779;28;20031;-78
2024/01/06 01:28:51;;;;;;;3.90;2.17;;;6.40;99.90;;;;;;4976256;28;20031;-78
2024/01/06 01:31:17;;;;;;;5.82;2.10;;;6.40;99.90;;;;;;4976272;28;20102;-78
2024/01/06 01:33:42;;;;;;;6.07;2.28;;;6.40;99.90;;;;;;4958544;28;20031;-78
2024/01/06 01:36:08;;;;;;;5.00;2.43;;;6.40;99.90;;;;;;4959151;28;20384;-78
2024/01/06 01:38:34;;;;;;;4.25;2.10;;;6.40;99.90;;;;;;4976434;28;20054;-78
2024/01/06 01:40:59;;;;;;;5.75;2.47;;;6.40;99.90;;;;;;4991259;28;20041;-78
2024/01/06 01:43:25;;;;;;;8.27;2.10;;;6.40;99.90;;;;;;4958983;28;20030;-78
2024/01/06 01:45:53;;;;;;;4.57;2.22;;;6.40;99.90;;;;;;4975942;28;20038;-78
2024/01/06 01:48:20;;;;;;;2.83;2.00;;;6.30;99.90;;;;;;4991183;28;20464;-78
2024/01/06 01:50:48;;;;;;;3.90;1.58;;;6.30;99.90;;;;;;4975799;28;20105;-78
2024/01/06 01:53:14;;;;;;;6.37;2.50;;;6.30;99.90;;;;;;4958626;28;20023;-78
2024/01/06 01:55:41;;;;;;;6.37;2.60;;;6.30;99.90;;;;;;4958012;28;20034;-80
2024/01/06 01:58:07;;;;;;;3.75;1.73;;;6.30;99.90;;;;;;4958416;28;20023;-78
2024/01/06 02:00:33;;;;;;;5.75;1.88;;;6.30;99.90;;;;;;4975874;28;20452;-77
2024/01/06 02:03:04;;;;;;;2.88;1.52;;;6.20;99.90;;;;;;4958128;28;20025;-78
2024/01/06 02:05:30;;;;;;;5.50;2.08;;;6.20;99.90;;;;;;4958473;28;20034;-78
2024/01/06 02:07:56;;;;;;;7.32;2.40;;;6.30;99.90;;;;;;4990296;28;20064;-78
2024/01/06 02:10:22;;;;;;;3.65;1.80;;;6.30;99.90;;;;;;4990223;28;20034;-78
2024/01/06 02:12:49;;;;;;;5.47;1.83;;;6.30;99.90;;;;;;4957923;28;20035;-78
2024/01/06 02:15:14;;;;;;;5.57;2.22;;;6.30;99.90;;;;;;4975760;28;20035;-78
2024/01/06 02:17:40;;;;;;;8.23;2.20;;;6.20;99.90;;;;;;4975603;28;20523;-85
2024/01/06 02:20:08;;;;;;;4.50;2.03;;;6.20;99.90;;;;;;4958406;28;20066;-78
2024/01/06 02:22:36;;;;;;;4.65;1.85;;;6.20;99.90;;;;;;4990203;28;20058;-78
2024/01/06 02:25:02;;;;;;;6.13;1.80;;;6.20;99.90;;;;;;4975159;28;20034;-78
2024/01/06 02:27:28;;;;;;;2.65;1.80;;;6.30;99.90;;;;;;4974943;28;20093;-78
2024/01/06 02:29:53;;;;;;;5.20;2.08;;;6.30;99.90;;;;;;4974607;28;20460;-78
2024/01/06 02:32:19;;;;;;;9.15;2.00;;;6.30;99.90;;;;;;4958062;28;20034;-78
2024/01/06 02:34:44;;;;;;;7.28;1.90;;;6.20;99.90;;;;;;4957769;28;20085;-79
2024/01/06 02:37:10;;;;;;;3.97;1.80;;;6.20;99.90;;;;;;4975294;28;20047;-78
2024/01/06 02:39:36;;;;;;;6.28;1.80;;;6.20;99.90;;;;;;4975512;28;20085;-78
2024/01/06 02:42:01;;;;;;;6.68;2.22;;;6.20;99.90;;;;;;4974592;28;20030;-77
2024/01/06 02:44:27;;;;;;;5.47;1.77;;;6.10;99.90;;;;;;4990171;28;20022;-78
2024/01/06 02:46:54;;;;;;;6.17;1.90;;;6.10;99.90;;;;;;4974642;28;20094;-77
2024/01/06 02:49:19;;;;;;;5.87;2.13;;;6.10;99.90;;;;;;4957960;28;20027;-78
2024/01/06 02:51:45;;;;;;;5.53;1.90;;;6.10;99.90;;;;;;4957482;28;20171;-78
2024/01/06 02:54:10;;;;;;;3.42;1.60;;;6.10;99.90;;;;;;4974760;28;20035;-77
2024/01/06 02:56:38;;;;;;;3.60;1.80;;;6.10;99.90;;;;;;4989980;28;20054;-78
2024/01/06 02:59:03;;;;;;;5.90;1.90;;;6.10;99.90;;;;;;4957298;28;20464;-78
2024/01/06 03:01:29;;;;;;;6.20;3.07;;;6.00;99.90;;;;;;4957936;28;20069;-77
2024/01/06 03:03:54;;;;;;;5.07;1.97;;;6.00;99.90;;;;;;4974286;28;20035;-78
2024/01/06 03:06:20;;;;;;;6.33;2.00;;;6.00;99.90;;;;;;4989824;28;20107;-78
2024/01/06 03:08:45;;;;;;;6.23;1.83;;;6.00;99.90;;;;;;4989016;28;20030;-85
2024/01/06 03:11:11;;;;;;;8.00;1.77;;;6.10;99.90;;;;;;4989847;28;20568;-78
2024/01/06 03:13:37;;;;;;;5.57;1.63;;;6.10;99.90;;;;;;4957576;28;20026;-78
2024/01/06 03:16:05;;;;;;;3.92;1.75;;;6.00;99.90;;;;;;4974609;28;20038;-77
2024/01/06 03:18:30;;;;;;;4.63;1.70;;;6.10;99.90;;;;;;4957608;28;20043;-78
2024/01/06 03:20:56;;;;;;;9.27;2.10;;;6.00;99.90;;;;;;4974652;28;20469;-78
2024/01/06 03:23:21;;;;;;;5.20;2.03;;;6.00;99.90;;;;;;4957636;28;20085;-77
2024/01/06 03:25:47;;;;;;;4.22;2.03;;;6.00;99.90;;;;;;4989557;28;20037;-79
2024/01/06 03:28:13;;;;;;;4.47;1.43;;;5.90;99.90;;;;;;4985873;28;20104;-78
2024/01/06 03:30:39;;;;;;;4.50;1.97;;;5.90;99.90;;;;;;4992957;28;20466;-78
2024/01/06 03:33:06;;;;;;;6.83;1.77;;;5.90;99.90;;;;;;4976151;28;20026;-78
2024/01/06 03:35:31;;;;;;;5.83;2.17;;;5.90;99.90;;;;;;4992831;28;20045;-78
2024/01/06 03:37:57;;;;;;;2.50;1.70;;;6.00;99.90;;;;;;4992089;28;20047;-78
2024/01/06 03:40:23;;;;;;;8.17;2.67;;;6.00;99.90;;;;;;4992669;28;20026;-78
2024/01/06 03:42:48;;;;;;;4.47;1.53;;;6.00;99.90;;;;;;4993516;28;20530;-80
2024/01/06 03:45:14;;;;;;;10.90;2.13;;;6.10;99.90;;;;;;4975861;28;20101;-78
2024/01/06 03:47:39;;;;;;;4.77;1.63;;;6.10;99.90;;;;;;4993723;28;20031;-78
2024/01/06 03:50:05;;;;;;;6.63;2.00;;;6.10;99.90;;;;;;4993648;28;20018;-78
2024/01/06 03:52:31;;;;;;;5.30;2.10;;;6.10;99.90;;;;;;4993639;28;20085;-78
2024/01/06 03:54:56;;;;;;;6.23;1.87;;;6.10;99.90;;;;;;4993271;28;20030;-78
2024/01/06 03:57:22;;;;;;;5.47;1.73;;;6.10;99.90;;;;;;4976405;28;20037;-78
2024/01/06 03:59:47;;;;;;;6.38;1.60;;;6.10;99.90;;;;;;4991891;28;20027;-88
2024/01/06 04:02:13;;;;;;;2.73;1.37;;;6.10;99.90;;;;;;4993157;28;20033;-78
2024/01/06 04:04:39;;;;;;;7.87;2.60;;;6.10;99.90;;;;;;4975733;28;20030;-78
2024/01/06 04:07:06;;;;;;;4.25;1.35;;;6.10;99.90;;;;;;4992886;28;20737;-78
2024/01/06 04:09:31;;;;;;;5.63;1.73;;;6.10;99.90;;;;;;4975659;28;20034;-78
2024/01/06 04:11:57;;;;;;;5.38;1.52;;;6.10;99.90;;;;;;4991827;28;20482;-78
2024/01/06 04:14:23;;;;;;;3.63;1.80;;;6.20;99.90;;;;;;4993202;28;20061;-78
2024/01/06 04:16:49;;;;;;;5.73;1.70;;;6.20;99.90;;;;;;4975443;28;20050;-80
2024/01/06 04:19:15;;;;;;;7.20;2.17;;;6.20;99.90;;;;;;4993168;28;20031;-78
2024/01/06 04:21:40;;;;;;;4.60;1.40;;;6.20;99.90;;;;;;4979233;28;20022;-78
2024/01/06 04:24:06;;;;;;;4.20;1.60;;;6.20;99.90;;;;;;4978720;28;20053;-78
2024/01/06 04:26:32;;;;;;;4.93;2.15;;;6.10;99.90;;;;;;4996776;28;20490;-78
2024/01/06 04:28:57;;;;;;;4.15;1.58;;;6.10;99.90;;;;;;4996486;28;20105;-78
2024/01/06 04:31:23;;;;;;;5.37;1.80;;;6.10;99.90;;;;;;4979355;28;20034;-78
2024/01/06 04:33:48;;;;;;;8.30;1.87;;;6.10;99.90;;;;;;4995309;28;20037;-85
2024/01/06 04:36:14;;;;;;;7.20;1.70;;;6.10;99.90;;;;;;4996440;28;20034;-78
2024/01/06 04:38:40;;;;;;;4.40;1.57;;;6.00;99.90;;;;;;4995162;28;20495;-79
2024/01/06 04:41:05;;;;;;;6.40;1.70;;;6.00;99.90;;;;;;4978628;28;20045;-78
2024/01/06 04:43:31;;;;;;;4.87;1.27;;;6.10;99.90;;;;;;4979095;28;20031;-78
2024/01/06 04:45:57;;;;;;;7.37;1.70;;;6.10;99.90;;;;;;4995811;28;20037;-78
2024/01/06 04:48:23;;;;;;;6.72;1.98;;;6.10;99.90;;;;;;4978900;28;20027;-78
2024/01/06 04:50:48;;;;;;;5.07;1.50;;;6.00;99.90;;;;;;4978660;28;20029;-88
2024/01/06 04:53:14;;;;;;;7.63;2.15;;;6.00;99.90;;;;;;4994348;28;20030;-78
2024/01/06 04:55:39;;;;;;;4.82;1.95;;;6.00;99.90;;;;;;4978871;28;20097;-78
2024/01/06 04:58:05;;;;;;;3.03;1.43;;;5.90;99.90;;;;;;4978213;28;20460;-78
2024/01/06 05:00:30;;;;;;;5.37;1.60;;;5.90;99.90;;;;;;4996160;28;20030;-78
2024/01/06 05:02:56;;;;;;;5.53;1.60;;;5.90;99.90;;;;;;4978476;28;20077;-78
2024/01/06 05:05:22;;;;;;;3.07;1.70;;;5.90;99.90;;;;;;4996029;28;20030;-78
2024/01/06 05:07:47;;;;;;;4.10;1.60;;;5.90;99.90;;;;;;4978967;28;20121;-78
2024/01/06 05:10:13;;;;;;;3.87;1.60;;;5.80;99.90;;;;;;4978231;28;20467;-78
2024/01/06 05:12:38;;;;;;;5.32;1.83;;;5.90;99.90;;;;;;4995975;28;20034;-78
2024/01/06 05:15:05;;;;;;;3.57;1.50;;;5.80;99.90;;;;;;4994356;28;20039;-78
2024/01/06 05:17:30;;;;;;;3.30;1.60;;;5.80;99.90;;;;;;4995743;28;20030;-78
2024/01/06 05:19:56;;;;;;;4.50;1.67;;;5.80;99.90;;;;;;4994229;28;20022;-79
2024/01/06 05:22:22;;;;;;;6.57;1.80;;;5.80;99.90;;;;;;4978615;28;20031;-78
2024/01/06 05:24:47;;;;;;;4.23;1.70;;;5.80;99.90;;;;;;4994652;28;20030;-78
2024/01/06 05:27:13;;;;;;;3.50;1.40;;;5.90;99.90;;;;;;4995288;28;20022;-78
2024/01/06 05:29:38;;;;;;;3.33;1.50;;;5.90;99.90;;;;;;4978589;28;20026;-77
2024/01/06 05:32:04;;;;;;;4.97;1.67;;;5.90;99.90;;;;;;4993986;28;20530;-78
2024/01/06 05:34:29;;;;;;;5.67;1.80;;;5.90;99.90;;;;;;4977985;28;20028;-78
2024/01/06 05:36:55;;;;;;;7.37;1.93;;;5.90;99.90;;;;;;4994641;28;20077;-78
2024/01/06 05:39:21;;;;;;;8.10;1.77;;;5.90;99.90;;;;;;4977863;28;20100;-78
2024/01/06 05:41:46;;;;;;;5.60;1.55;;;6.00;99.90;;;;;;4995343;28;20049;-78
2024/01/06 05:44:12;;;;;;;2.80;1.40;;;6.00;99.90;;;;;;4977407;28;20096;-78
2024/01/06 05:46:37;;;;;;;2.53;1.30;;;6.00;99.90;;;;;;4977684;28;20070;-78
2024/01/06 05:49:04;;;;;;;4.87;1.83;;;6.00;99.90;;;;;;4993705;28;20030;-78
2024/01/06 05:51:29;;;;;;;2.07;1.37;;;6.00;99.90;;;;;;4978326;28;20546;-78
2024/01/06 05:53:55;;;;;;;5.07;1.70;;;6.00;99.90;;;;;;4978228;28;20121;-86
2024/01/06 05:56:25;;;;;;;3.90;1.60;;;6.00;99.90;;;;;;4995322;28;20093;-77
2024/01/06 05:58:52;;;;;;;3.33;1.60;;;6.00;99.90;;;;;;4995373;28;20026;-78
2024/01/06 06:01:18;;;;;;;9.13;2.10;;;6.00;99.90;;;;;;4977528;28;20085;-78
2024/01/06 06:03:43;;;;;;;5.53;1.63;;;6.00;99.90;;;;;;4977720;28;20474;-78
2024/01/06 06:06:09;;;;;;;2.95;1.50;;;6.00;99.90;;;;;;4994728;28;20165;-78
2024/01/06 06:08:34;;;;;;;3.10;1.53;;;6.00;99.90;;;;;;4994845;28;20464;-78
2024/01/06 06:11:05;;;;;;;5.53;1.83;;;6.00;99.90;;;;;;4994587;28;20041;-78
2024/01/06 06:13:31;;;;;;;6.40;1.95;;;6.00;99.90;;;;;;4977567;28;20022;-78
2024/01/06 06:15:57;;;;;;;6.53;2.00;;;6.10;99.90;;;;;;4994548;28;20069;-86
2024/01/06 06:18:23;;;;;;;4.60;1.40;;;6.10;99.90;;;;;;4977150;28;20045;-78
2024/01/06 06:20:48;;;;;;;3.75;1.42;;;6.10;99.90;;;;;;4977542;28;20463;-78
2024/01/06 06:23:14;;;;;;;6.03;1.87;;;6.10;99.90;;;;;;4976998;28;20109;-78
2024/01/06 06:25:40;;;;;;;4.03;1.60;;;6.10;99.90;;;;;;4977342;28;20037;-78
2024/01/06 06:28:06;;;;;;;7.03;1.67;;;6.10;99.90;;;;;;4994563;28;20034;-78
2024/01/06 06:30:32;;;;;;;7.27;1.67;;;6.10;99.90;;;;;;4977649;28;20069;-78
2024/01/06 06:32:57;;;;;;;3.67;1.60;;;6.10;99.90;;;;;;4976538;28;20137;-87
2024/01/06 06:35:24;;;;;;;8.20;1.98;;;6.20;99.90;;;;;;4977191;28;20523;-78
2024/01/06 06:37:50;;;;;;;6.18;1.73;;;6.20;99.90;;;;;;4977077;28;20097;-78
2024/01/06 06:40:15;;;;;;;4.40;1.55;;;6.20;99.90;;;;;;4992978;28;20026;-78
2024/01/06 06:42:41;;;;;;;5.40;1.95;;;6.20;99.90;;;;;;4994396;28;20084;-78
2024/01/06 06:45:07;;;;;;;4.63;1.60;;;6.20;99.90;;;;;;4976863;28;20426;-78
2024/01/06 06:47:33;;;;;;;5.57;1.80;;;6.20;99.90;;;;;;4977295;28;20034;-78
2024/01/06 06:49:58;;;;;;;6.67;2.00;;;6.20;99.90;;;;;;4994226;28;20027;-85
2024/01/06 06:52:24;;;;;;;3.90;2.10;;;6.10;99.90;;;;;;4977018;28;20168;-78
2024/01/06 06:54:50;;;;;;;4.13;2.10;;;6.10;99.90;;;;;;4976928;28;20399;-78
2024/01/06 06:57:16;;;;;;;4.07;1.80;;;6.20;99.90;;;;;;4992620;28;20054;-78
2024/01/06 06:59:41;;;;;;;4.67;1.60;;;6.20;99.90;;;;;;4976846;28;20509;-78
2024/01/06 07:02:07;;;;;;;10.30;2.03;;;6.20;99.90;;;;;;4993585;28;20033;-78
2024/01/06 07:04:33;;;;;;;6.83;1.90;;;6.20;99.90;;;;;;4994212;28;20041;-78
2024/01/06 07:06:58;;;;;;;3.93;1.80;;;6.20;99.90;;;;;;4993615;28;20104;-86
2024/01/06 07:09:24;;;;;;;7.13;2.33;;;6.20;99.90;;;;;;4993904;28;20031;-78
2024/01/06 07:11:50;;;;;;;3.72;2.00;;;6.20;99.90;;;;;;4994074;28;20061;-78
2024/01/06 07:14:16;;;;;;;6.68;2.28;;;6.20;99.90;;;;;;4993564;28;20109;-78
2024/01/06 07:16:41;;;;;;;6.75;2.17;;;6.20;99.90;;;;;;4993968;28;20407;-78
2024/01/06 07:19:07;;;;;;;5.23;1.87;;;6.20;99.90;;;;;;4992605;28;20420;-78
2024/01/06 07:21:32;;;;;;;4.77;2.13;;;6.20;99.90;;;;;;4993823;28;20431;-78
2024/01/06 07:23:58;;;;;;;4.30;2.22;;;6.20;99.90;;;;;;4993495;28;20062;-80
2024/01/06 07:26:24;;;;;;;6.33;2.30;;;6.20;99.90;;;;;;4992820;28;20093;-79
2024/01/06 07:28:49;;;;;;;5.37;2.10;;;6.20;99.90;;;;;;4976715;28;20117;-78
2024/01/06 07:31:15;;;;;;;6.70;2.00;;;6.20;99.90;;;;;;4992365;28;20049;-78
2024/01/06 07:33:40;;;;;;;3.97;2.00;;;6.20;99.90;;;;;;4993593;28;20030;-78
2024/01/06 07:36:06;;;;;;;3.73;1.90;;;6.30;99.90;;;;;;4993590;28;20372;-78
2024/01/06 07:38:32;;;;;;;5.78;2.10;;;6.30;99.90;;;;;;4988840;28;20145;-78
2024/01/06 07:40:57;;;;;;;4.50;1.80;;;6.30;99.90;;;;;;4973141;28;20046;-78
2024/01/06 07:43:23;;;;;;;4.17;2.00;;;6.30;99.90;;;;;;4972573;28;20531;-78
2024/01/06 07:45:49;;;;;;;7.85;2.78;;;6.30;99.90;;;;;;4974014;28;20173;-78
2024/01/06 07:48:15;;;;;;;5.87;2.93;;;6.30;99.90;;;;;;4972813;28;20380;-78
2024/01/06 07:50:40;;;;;;;4.67;2.33;;;6.30;99.90;;;;;;4973240;28;20053;-78
2024/01/06 07:53:06;;;;;;;4.40;2.40;;;6.30;99.90;;;;;;4973728;28;20035;-79
2024/01/06 07:55:31;;;;;;;3.90;2.43;;;6.30;99.90;;;;;;4975786;28;20045;-78
2024/01/06 07:57:57;;;;;;;6.40;2.63;;;6.30;99.90;;;;;;4976886;28;20031;-78
2024/01/06 08:00:23;;;;;;;4.88;2.60;;;6.30;99.90;;;;;;4976198;28;20113;-78
2024/01/06 08:02:48;;;;;;;4.53;2.30;;;6.30;99.90;;;;;;4976796;28;20031;-78
2024/01/06 08:05:14;;;;;;;6.10;2.37;;;6.30;99.90;;;;;;4976109;28;20464;-78
2024/01/06 08:07:40;;;;;;;5.03;2.53;;;6.40;99.90;;;;;;4976834;28;20031;-78
2024/01/06 08:10:06;;;;;;;5.97;2.40;;;6.30;99.90;;;;;;4975461;28;20408;-78
2024/01/06 08:12:32;;;;;;;8.07;2.70;;;6.40;99.90;;;;;;4976181;28;20039;-78
2024/01/06 08:14:57;;;;;;;5.43;2.30;;;6.30;99.90;;;;;;4976696;28;20038;-79
2024/01/06 08:17:23;;;;;;;4.65;2.00;;;6.40;99.90;;;;;;4976268;28;20081;-79
2024/01/06 08:19:49;;;;;;;3.47;2.70;;;6.30;99.90;;;;;;4976384;28;20027;-79
2024/01/06 08:22:14;;;;;;;4.17;2.40;;;6.30;99.90;;;;;;4976087;28;20489;-79
2024/01/06 08:24:40;;;;;;;6.43;2.30;;;6.30;99.90;;;;;;4975986;28;20042;-77
2024/01/06 08:27:06;;;;;;;10.47;3.17;;;6.40;99.90;;;;;;4976792;28;20465;-77
2024/01/06 08:29:32;;;;;;;7.72;2.83;;;6.40;99.90;;;;;;4976197;28;20038;-78
2024/01/06 08:31:57;;;;;;;7.22;3.25;;;6.40;99.90;;;;;;4976982;28;20497;-78
2024/01/06 08:34:23;;;;;;;7.83;2.73;;;6.40;99.90;;;;;;4974714;28;20054;-77
2024/01/06 08:36:49;;;;;;;10.40;2.53;;;6.40;99.90;;;;;;4974587;28;20385;-76
2024/01/06 08:39:14;;;;;;;8.60;3.00;;;6.40;99.90;;;;;;4951382;28;20512;-76
2024/01/06 08:41:40;;;;;;;5.15;2.28;;;6.40;99.90;;;;;;4937417;29;20032;-77
2024/01/06 08:44:05;;;;;;;6.57;2.63;;;6.40;99.90;;;;;;4937989;29;20088;-77
2024/01/06 08:46:31;;;;;;;6.50;2.73;;;6.40;99.90;;;;;;4938617;29;20046;-77
2024/01/06 08:48:57;;;;;;;7.93;2.80;;;6.40;99.90;;;;;;4938394;29;20373;-77
2024/01/06 08:51:23;;;;;;;7.60;3.00;;;6.40;99.90;;;;;;4936672;29;20063;-76
2024/01/06 08:53:49;;;;;;;7.57;2.57;;;6.40;99.90;;;;;;4937652;29;20028;-76
2024/01/06 08:56:17;;;;;;;5.88;2.60;;;6.40;99.90;;;;;;4935842;29;20031;-77
2024/01/06 08:58:43;;;;;;;6.82;3.28;;;6.40;99.90;;;;;;4936716;29;20039;-76
2024/01/06 09:01:09;;;;;;;7.82;2.85;;;6.40;99.90;;;;;;4935928;29;20032;-78
2024/01/06 09:03:34;;;;;;;6.70;2.70;;;6.50;99.90;;;;;;4937818;29;20035;-77
2024/01/06 09:06:00;;;;;;;5.05;2.88;;;6.50;99.90;;;;;;4935842;29;20027;-77
2024/01/06 09:08:26;;;;;;;10.00;2.83;;;6.60;99.90;;;;;;4937248;29;20051;-77
2024/01/06 09:10:51;;;;;;;5.63;2.83;;;6.60;99.90;;;;;;4937726;29;20468;-77
2024/01/06 09:13:21;;;;;;;7.43;3.00;;;6.60;99.90;;;;;;4935883;29;20028;-78
2024/01/06 09:15:47;;;;;;;11.10;3.63;;;6.70;99.90;;;;;;4936304;29;20035;-77
2024/01/06 09:18:13;;;;;;;4.90;3.13;;;6.60;99.90;;;;;;4935775;29;20024;-78
2024/01/06 09:20:38;;;;;;;6.40;3.20;;;6.60;99.90;;;;;;4936386;29;20032;-77
2024/01/06 09:23:04;;;;;;;5.95;3.15;;;6.60;99.90;;;;;;4936037;29;20035;-87
2024/01/06 09:25:30;;;;;;;4.20;2.72;;;6.60;99.90;;;;;;4935630;29;20043;-77
2024/01/06 09:27:55;;;;;;;6.63;3.65;;;6.60;99.90;;;;;;4936052;29;20127;-77
2024/01/06 09:30:21;;;;;;;5.47;3.28;;;6.50;99.90;;;;;;4936015;29;20028;-78
2024/01/06 09:32:46;;;;;;;6.38;2.75;;;6.50;99.90;;;;;;4936294;29;20470;-77
2024/01/06 09:35:12;;;;;;;5.68;3.58;;;6.50;99.90;;;;;;4936009;29;20043;-78
2024/01/06 09:37:38;;;;;;;5.20;3.27;;;6.50;99.90;;;;;;4936135;29;20060;-77
2024/01/06 09:40:04;;;;;;;8.55;3.30;;;6.50;99.90;;;;;;4936455;29;20039;-77
2024/01/06 09:42:29;;;;;;;5.88;2.70;;;6.50;99.90;;;;;;4935760;29;20036;-77
2024/01/06 09:44:55;;;;;;;7.15;3.17;;;6.60;99.90;;;;;;4937334;29;20054;-76
2024/01/06 09:47:23;;;;;;;6.65;3.08;;;6.60;99.90;;;;;;4936493;29;20389;-76
2024/01/06 09:49:49;;;;;;;6.30;3.10;;;6.60;99.90;;;;;;4937238;29;20032;-76
2024/01/06 09:52:20;;;;;;;7.40;3.33;;;6.60;99.90;;;;;;4936717;29;20074;-77
2024/01/06 09:54:54;;;;;;;5.75;3.22;;;6.60;99.90;;;;;;4935881;29;20035;-77
2024/01/06 09:57:20;;;;;;;6.07;3.33;;;6.60;99.90;;;;;;4935280;29;20034;-76
2024/01/06 09:59:47;;;;;;;5.97;3.22;;;6.60;99.90;;;;;;4936338;29;20059;-77
2024/01/06 10:02:16;;;;;;;6.50;2.97;;;6.60;99.90;;;;;;4934665;29;20384;-77
2024/01/06 10:04:43;;;;;;;7.28;3.25;;;6.60;99.90;;;;;;4935264;29;20485;-77
2024/01/06 10:07:12;;;;;;;7.90;3.50;;;6.70;99.90;;;;;;4936278;29;20041;-88
2024/01/06 10:09:38;;;;;;;4.93;2.83;;;6.70;99.90;;;;;;4935206;29;20136;-78
2024/01/06 10:12:04;;;;;;;6.55;3.00;;;6.70;99.90;;;;;;4936697;29;20499;-77
2024/01/06 10:14:30;;;;;;;7.40;3.40;;;6.70;99.90;;;;;;4935151;29;20375;-77
2024/01/06 10:16:55;;;;;;;10.73;3.90;;;6.70;99.90;;;;;;4935105;29;20027;-78
2024/01/06 10:19:21;;;;;;;7.32;3.63;;;6.70;99.90;;;;;;4935216;29;20118;-78
2024/01/06 10:21:46;;;;;;;4.18;3.25;;;6.70;99.90;;;;;;4936798;29;20039;-77
2024/01/06 10:24:13;;;;;;;7.35;3.60;;;6.70;99.90;;;;;;4934554;29;20047;-78
2024/01/06 10:26:39;;;;;;;7.18;4.20;;;6.70;99.90;;;;;;4936333;29;20027;-78
2024/01/06 10:29:05;;;;;;;7.78;3.20;;;6.70;99.90;;;;;;4935156;29;20035;-77
2024/01/06 10:31:31;;;;;;;4.65;3.15;;;6.70;99.90;;;;;;4934570;29;20020;-78
2024/01/06 10:33:57;;;;;;;5.15;3.00;;;6.70;99.90;;;;;;4936099;29;20485;-78
2024/01/06 10:36:23;;;;;;;6.13;3.47;;;6.70;99.90;;;;;;4935778;29;20031;-78
2024/01/06 10:38:49;;;;;;;6.78;3.53;;;6.70;99.90;;;;;;4934843;29;20139;-78
2024/01/06 10:41:16;;;;;;;7.50;3.63;;;6.70;99.90;;;;;;4936178;29;20589;-77
2024/01/06 10:43:43;;;;;;;8.52;3.55;;;6.70;99.90;;;;;;4935151;29;20035;-77
2024/01/06 10:46:14;;;;;;;7.32;3.33;;;6.70;99.90;;;;;;4935010;29;20036;-83
2024/01/06 10:48:42;;;;;;;3.63;3.03;;;6.70;99.90;;;;;;4935032;29;20023;-78
2024/01/06 10:51:09;;;;;;;8.05;3.50;;;6.70;99.90;;;;;;4936183;29;20023;-77
2024/01/06 10:53:39;;;;;;;6.32;3.78;;;6.70;99.90;;;;;;4934915;29;20031;-77
2024/01/06 10:56:11;;;;;;;4.60;3.40;;;6.70;99.90;;;;;;4936195;29;20078;-77
2024/01/06 10:58:42;;;;;;;7.53;3.65;;;6.60;99.90;;;;;;4934901;29;20119;-77
2024/01/06 11:01:12;;;;;;;6.05;3.78;;;6.60;99.90;;;;;;4934965;29;20039;-77
2024/01/06 11:03:39;;;;;;;6.03;3.78;;;6.70;99.90;;;;;;4934816;29;20024;-78
2024/01/06 11:06:12;;;;;;;7.37;3.77;;;6.70;99.90;;;;;;4934601;29;20413;-78
2024/01/06 11:09:09;;;;;;;6.93;3.58;;;6.70;99.90;;;;;;4935671;29;20082;-78
2024/01/06 11:11:37;;;;;;;5.97;3.37;;;6.80;99.90;;;;;;4935392;29;20118;-77
2024/01/06 11:14:18;;;;;;;5.90;3.90;;;6.80;99.90;;;;;;4934635;29;20058;-78
2024/01/06 11:16:43;;;;;;;7.43;3.55;;;6.80;99.90;;;;;;4936013;29;20111;-77
2024/01/06 11:19:34;;;;;;;7.63;4.10;;;6.80;99.90;;;;;;4934740;29;20537;-77
2024/01/06 11:22:39;;;;;;;6.20;3.20;;;6.80;99.90;;;;;;4935841;29;20027;-78
2024/01/06 11:25:07;;;;;;;8.43;3.77;;;6.80;99.90;;;;;;4895236;29;20501;-77
2024/01/06 11:27:33;;;;;;;5.53;3.35;;;6.80;99.90;;;;;;4939983;29;20046;-77
2024/01/06 11:30:00;;;;;;;6.07;3.63;;;6.70;99.90;;;;;;4937007;29;20533;-76
2024/01/06 11:32:41;;;;;;;5.80;3.40;;;6.80;99.90;;;;;;4937641;29;20058;-77
2024/01/06 11:35:09;;;;;;;6.30;3.57;;;6.80;99.90;;;;;;4939347;29;20513;-77
2024/01/06 11:37:38;;;;;;;4.72;3.28;;;6.90;99.90;;;;;;4948080;29;20603;-77
2024/01/06 11:40:20;;;;;;;7.13;3.40;;;6.90;99.90;;;;;;4941384;29;20027;-77
2024/01/06 11:42:59;;;;;;;5.53;3.08;;;6.80;99.90;;;;;;4941352;29;20035;-77
2024/01/06 11:45:26;;;;;;;5.40;3.67;;;6.80;99.90;;;;;;4940715;29;20031;-77
2024/01/06 11:47:58;;;;;;;6.10;3.65;;;6.80;99.90;;;;;;4941325;29;20090;-78
2024/01/06 11:50:26;;;;;;;6.13;3.55;;;6.80;99.90;;;;;;4940661;29;20058;-77
2024/01/06 11:52:52;;;;;;;6.70;3.37;;;6.90;99.90;;;;;;4957936;28;20019;-77
2024/01/06 11:55:18;;;;;;;4.87;3.43;;;6.90;99.90;;;;;;4940523;29;20034;-80
2024/01/06 11:57:44;;;;;;;5.90;3.38;;;6.90;99.90;;;;;;4940873;29;20035;-78
2024/01/06 12:00:11;;;;;;;4.78;3.30;;;6.90;99.90;;;;;;4940841;29;20035;-77
2024/01/06 12:02:38;;;;;;;5.05;2.88;;;6.90;99.90;;;;;;4940468;29;20122;-77
2024/01/06 12:05:03;;;;;;;6.25;3.30;;;6.90;99.90;;;;;;4939748;29;20114;-76
2024/01/06 12:07:29;;;;;;;6.68;3.65;;;6.90;99.90;;;;;;4940477;29;20066;-78
2024/01/06 12:10:02;;;;;;;6.45;3.10;;;6.90;99.90;;;;;;4957894;28;20102;-78
2024/01/06 12:12:28;;;;;;;7.28;3.40;;;6.90;99.90;;;;;;4957400;28;20055;-77
2024/01/06 12:14:54;;;;;;;5.60;3.38;;;6.80;99.90;;;;;;4940890;29;20062;-77
2024/01/06 12:17:21;;;;;;;6.55;3.67;;;6.90;99.90;;;;;;4940438;29;20377;-79
2024/01/06 12:19:47;;;;;;;5.32;3.53;;;6.90;99.90;;;;;;4957794;29;20062;-78
2024/01/06 12:22:15;;;;;;;5.18;2.85;;;6.90;99.90;;;;;;4957954;28;20027;-77
2024/01/06 12:24:42;;;;;;;5.30;3.30;;;6.90;99.90;;;;;;4939948;29;20086;-78
2024/01/06 12:27:10;;;;;;;5.97;3.75;;;6.90;99.90;;;;;;4940746;29;20028;-77
2024/01/06 12:29:38;;;;;;;5.30;3.80;;;6.90;99.90;;;;;;4957209;29;20069;-77
2024/01/06 12:32:05;;;;;;;6.55;3.45;;;6.90;99.90;;;;;;4940274;29;20023;-77
2024/01/06 12:34:30;;;;;;;6.40;3.13;;;6.90;99.90;;;;;;4939664;29;20477;-77
2024/01/06 12:36:56;;;;;;;5.10;2.78;;;6.90;99.90;;;;;;4957254;28;20055;-77
2024/01/06 12:39:23;;;;;;;7.28;3.45;;;6.90;99.90;;;;;;4939527;28;20070;-77
2024/01/06 12:41:50;;;;;;;4.15;2.70;;;6.90;99.90;;;;;;4957829;29;20457;-77
2024/01/06 12:44:16;;;;;;;4.30;3.05;;;6.90;99.90;;;;;;4957338;29;20031;-82
2024/01/06 12:46:41;;;;;;;5.57;3.67;;;6.90;99.90;;;;;;4939870;29;20066;-76
2024/01/06 12:49:07;;;;;;;8.52;3.80;;;6.90;99.90;;;;;;4957094;29;20028;-76
2024/01/06 12:51:33;;;;;;;6.83;3.50;;;6.90;99.90;;;;;;4939707;29;20027;-77
2024/01/06 12:53:58;;;;;;;6.78;3.50;;;6.90;99.90;;;;;;4939940;29;20485;-77